sensor_id;sensor_type;location;lat;lon;timestamp;temperature;humidity
17968;DHT22;9109;48.050;11.696;2022-10-31T04:47:56;10.80;99.90
17968;DHT22;9109;48.050;11.696;2022-10-31T04:51:04;10.90;99.90
17968;DHT22;9109;48.050;11.696;2022-10-31T04:54:06;10.90;99.90
17968;DHT22;9109;48.050;11.696;2022-10-31T04:57:16;11.00;99.90
17968;DHT22;9109;48.050;11.696;2022-10-31T05:00:22;11.10;99.90
17968;DHT22;9109;48.050;11.696;2022-10-31T05:03:49;11.10;99.90
17968;DHT22;9109;48.050;11.696;2022-10-31T05:06:55;11.10;99.90
17968;DHT22;9109;48.050;11.696;2022-10-31T05:14:32;11.10;99.90
17968;DHT22;9109;48.050;11.696;2022-10-31T05:18:00;11.00;99.90
17968;DHT22;9109;48.050;11.696;2022-10-31T05:21:04;11.00;99.90
17968;DHT22;9109;48.050;11.696;2022-10-31T05:24:06;11.00;99.90
17968;DHT22;9109;48.050;11.696;2022-10-31T05:27:08;11.00;99.90
17968;DHT22;9109;48.050;11.696;2022-10-31T05:30:12;11.00;99.90
17968;DHT22;9109;48.050;11.696;2022-10-31T05:33:14;11.00;99.90
17968;DHT22;9109;48.050;11.696;2022-10-31T05:36:18;10.90;99.90
17968;DHT22;9109;48.050;11.696;2022-10-31T05:39:19;10.90;99.90
17968;DHT22;9109;48.050;11.696;2022-10-31T05:42:21;10.90;99.90
17968;DHT22;9109;48.050;11.696;2022-10-31T05:45:24;10.90;99.90
17968;DHT22;9109;48.050;11.696;2022-10-31T05:48:26;10.80;99.90
17968;DHT22;9109;48.050;11.696;2022-10-31T05:51:29;10.80;99.90
17968;DHT22;9109;48.050;11.696;2022-10-31T05:54:31;10.70;99.90
17968;DHT22;9109;48.050;11.696;2022-10-31T05:57:33;10.80;99.90
17968;DHT22;9109;48.050;11.696;2022-10-31T06:00:35;10.80;99.90
17968;DHT22;9109;48.050;11.696;2022-10-31T06:03:36;10.80;99.90
17968;DHT22;9109;48.050;11.696;2022-10-31T06:06:40;10.80;99.90
17968;DHT22;9109;48.050;11.696;2022-10-31T06:09:42;10.80;99.90
17968;DHT22;9109;48.050;11.696;2022-10-31T06:12:43;10.80;99.90
17968;DHT22;9109;48.050;11.696;2022-10-31T06:15:45;10.80;99.90
17968;DHT22;9109;48.050;11.696;2022-10-31T06:18:47;10.80;99.90
17968;DHT22;9109;48.050;11.696;2022-10-31T06:21:51;10.80;99.90
17968;DHT22;9109;48.050;11.696;2022-10-31T06:24:52;10.80;99.90
17968;DHT22;9109;48.050;11.696;2022-10-31T06:27:55;10.80;99.90
17968;DHT22;9109;48.050;11.696;2022-10-31T06:30:57;10.80;99.90
17968;DHT22;9109;48.050;11.696;2022-10-31T06:33:59;10.80;99.90
17968;DHT22;9109;48.050;11.696;2022-10-31T06:37:02;10.80;99.90
17968;DHT22;9109;48.050;11.696;2022-10-31T06:40:05;10.90;99.90
17968;DHT22;9109;48.050;11.696;2022-10-31T06:43:07;10.90;99.90
17968;DHT22;9109;48.050;11.696;2022-10-31T06:46:08;10.90;99.90
17968;DHT22;9109;48.050;11.696;2022-10-31T06:49:10;11.00;99.90
17968;DHT22;9109;48.050;11.696;2022-10-31T06:52:14;11.00;99.90
17968;DHT22;9109;48.050;11.696;2022-10-31T06:55:15;11.00;99.90
17968;DHT22;9109;48.050;11.696;2022-10-31T06:58:17;11.00;99.90
17968;DHT22;9109;48.050;11.696;2022-10-31T07:01:19;11.10;99.90
17968;DHT22;9109;48.050;11.696;2022-10-31T07:04:21;11.10;99.90
17968;DHT22;9109;48.050;11.696;2022-10-31T07:07:26;11.10;99.90
17968;DHT22;9109;48.050;11.696;2022-10-31T07:10:29;11.20;99.90
17968;DHT22;9109;48.050;11.696;2022-10-31T07:13:31;11.10;99.90
17968;DHT22;9109;48.050;11.696;2022-10-31T07:16:33;11.10;99.90
17968;DHT22;9109;48.050;11.696;2022-10-31T07:19:35;11.10;99.90
17968;DHT22;9109;48.050;11.696;2022-10-31T07:22:38;11.20;99.90
17968;DHT22;9109;48.050;11.696;2022-10-31T07:25:40;11.20;99.90
17968;DHT22;9109;48.050;11.696;2022-10-31T07:28:42;11.30;99.90
17968;DHT22;9109;48.050;11.696;2022-10-31T07:31:45;11.30;99.90
17968;DHT22;9109;48.050;11.696;2022-10-31T07:34:47;11.40;99.90
17968;DHT22;9109;48.050;11.696;2022-10-31T07:37:51;11.40;99.90
17968;DHT22;9109;48.050;11.696;2022-10-31T07:40:53;11.40;99.90
17968;DHT22;9109;48.050;11.696;2022-10-31T07:43:54;11.40;99.90
17968;DHT22;9109;48.050;11.696;2022-10-31T07:46:56;11.40;99.90
17968;DHT22;9109;48.050;11.696;2022-10-31T07:49:58;11.40;99.90
17968;DHT22;9109;48.050;11.696;2022-10-31T07:53:03;11.50;99.90
17968;DHT22;9109;48.050;11.696;2022-10-31T07:56:05;11.50;99.90
17968;DHT22;9109;48.050;11.696;2022-10-31T07:59:07;11.50;99.90
17968;DHT22;9109;48.050;11.696;2022-10-31T08:02:09;11.60;99.90
17968;DHT22;9109;48.050;11.696;2022-10-31T08:05:11;11.60;99.90
17968;DHT22;9109;48.050;11.696;2022-10-31T08:08:15;11.70;99.90
17968;DHT22;9109;48.050;11.696;2022-10-31T08:11:17;11.80;99.90
17968;DHT22;9109;48.050;11.696;2022-10-31T08:14:19;11.90;99.90
17968;DHT22;9109;48.050;11.696;2022-10-31T08:17:21;12.00;99.90
17968;DHT22;9109;48.050;11.696;2022-10-31T08:20:23;12.00;99.90
17968;DHT22;9109;48.050;11.696;2022-10-31T08:23:26;12.10;99.90
17968;DHT22;9109;48.050;11.696;2022-10-31T08:26:28;12.30;99.90
17968;DHT22;9109;48.050;11.696;2022-10-31T08:29:31;12.50;99.90
17968;DHT22;9109;48.050;11.696;2022-10-31T08:32:33;12.80;99.90
17968;DHT22;9109;48.050;11.696;2022-10-31T08:35:35;13.10;99.90
17968;DHT22;9109;48.050;11.696;2022-10-31T08:38:38;13.30;99.90
17968;DHT22;9109;48.050;11.696;2022-10-31T08:41:40;13.40;99.90
17968;DHT22;9109;48.050;11.696;2022-10-31T08:44:42;13.40;99.90
17968;DHT22;9109;48.050;11.696;2022-10-31T08:47:43;13.50;99.90
17968;DHT22;9109;48.050;11.696;2022-10-31T08:50:46;13.80;99.90
17968;DHT22;9109;48.050;11.696;2022-10-31T08:53:49;13.80;99.90
17968;DHT22;9109;48.050;11.696;2022-10-31T08:56:54;14.00;99.90
17968;DHT22;9109;48.050;11.696;2022-10-31T08:59:56;14.30;99.90
17968;DHT22;9109;48.050;11.696;2022-10-31T09:02:58;14.40;99.90
17968;DHT22;9109;48.050;11.696;2022-10-31T09:06:03;14.50;99.90
17968;DHT22;9109;48.050;11.696;2022-10-31T09:09:10;14.60;99.90
17968;DHT22;9109;48.050;11.696;2022-10-31T09:12:12;14.70;99.90
17968;DHT22;9109;48.050;11.696;2022-10-31T09:15:14;14.80;99.90
17968;DHT22;9109;48.050;11.696;2022-10-31T09:18:19;14.90;99.90
17968;DHT22;9109;48.050;11.696;2022-10-31T09:21:23;14.90;99.90
17968;DHT22;9109;48.050;11.696;2022-10-31T09:24:27;15.10;99.90
17968;DHT22;9109;48.050;11.696;2022-10-31T09:27:28;15.20;99.90
17968;DHT22;9109;48.050;11.696;2022-10-31T09:30:33;15.20;99.90
17968;DHT22;9109;48.050;11.696;2022-10-31T09:33:35;15.30;99.90
17968;DHT22;9109;48.050;11.696;2022-10-31T09:36:38;15.40;99.90
17968;DHT22;9109;48.050;11.696;2022-10-31T09:39:41;15.40;99.90
17968;DHT22;9109;48.050;11.696;2022-10-31T09:42:54;15.50;99.90
17968;DHT22;9109;48.050;11.696;2022-10-31T09:46:03;15.50;99.90
17968;DHT22;9109;48.050;11.696;2022-10-31T09:49:24;15.50;99.90
17968;DHT22;9109;48.050;11.696;2022-10-31T09:52:34;15.70;99.90
17968;DHT22;9109;48.050;11.696;2022-10-31T09:55:41;15.80;99.90
17968;DHT22;9109;48.050;11.696;2022-10-31T09:58:45;15.90;99.90
17968;DHT22;9109;48.050;11.696;2022-10-31T10:01:51;15.90;99.90
17968;DHT22;9109;48.050;11.696;2022-10-31T10:04:56;15.90;99.90
17968;DHT22;9109;48.050;11.696;2022-10-31T10:08:05;16.00;99.90
17968;DHT22;9109;48.050;11.696;2022-10-31T10:11:26;16.00;99.90
17968;DHT22;9109;48.050;11.696;2022-10-31T10:14:42;16.10;99.90
17968;DHT22;9109;48.050;11.696;2022-10-31T10:17:55;16.20;99.90
17968;DHT22;9109;48.050;11.696;2022-10-31T10:21:11;16.40;99.90
17968;DHT22;9109;48.050;11.696;2022-10-31T10:24:30;16.40;98.80
17968;DHT22;9109;48.050;11.696;2022-10-31T10:27:49;16.60;99.00
17968;DHT22;9109;48.050;11.696;2022-10-31T10:30:56;16.60;97.60
17968;DHT22;9109;48.050;11.696;2022-10-31T10:34:07;16.60;98.40
17968;DHT22;9109;48.050;11.696;2022-10-31T10:37:20;16.50;98.60
17968;DHT22;9109;48.050;11.696;2022-10-31T10:40:25;16.50;98.00
17968;DHT22;9109;48.050;11.696;2022-10-31T10:43:32;16.40;98.40
17968;DHT22;9109;48.050;11.696;2022-10-31T10:46:52;16.30;99.40
17968;DHT22;9109;48.050;11.696;2022-10-31T10:50:16;16.50;97.90
17968;DHT22;9109;48.050;11.696;2022-10-31T10:53:29;16.50;97.50
17968;DHT22;9109;48.050;11.696;2022-10-31T10:56:54;16.50;98.40
17968;DHT22;9109;48.050;11.696;2022-10-31T11:00:15;16.70;97.40
17968;DHT22;9109;48.050;11.696;2022-10-31T11:03:19;16.80;97.60
17968;DHT22;9109;48.050;11.696;2022-10-31T11:06:22;16.80;98.50
17968;DHT22;9109;48.050;11.696;2022-10-31T11:09:26;16.80;98.40
17968;DHT22;9109;48.050;11.696;2022-10-31T11:12:30;17.00;98.20
17968;DHT22;9109;48.050;11.696;2022-10-31T11:15:37;17.00;97.90
17968;DHT22;9109;48.050;11.696;2022-10-31T11:18:42;17.20;97.40
17968;DHT22;9109;48.050;11.696;2022-10-31T11:21:45;17.20;96.70
17968;DHT22;9109;48.050;11.696;2022-10-31T11:24:47;17.20;96.60
17968;DHT22;9109;48.050;11.696;2022-10-31T11:27:59;17.20;96.00
17968;DHT22;9109;48.050;11.696;2022-10-31T11:31:07;17.20;96.80
17968;DHT22;9109;48.050;11.696;2022-10-31T11:34:19;17.30;95.00
17968;DHT22;9109;48.050;11.696;2022-10-31T11:37:25;17.40;96.20
17968;DHT22;9109;48.050;11.696;2022-10-31T11:40:28;17.40;96.50
17968;DHT22;9109;48.050;11.696;2022-10-31T11:43:30;17.40;93.40
17968;DHT22;9109;48.050;11.696;2022-10-31T11:46:35;17.50;93.70
17968;DHT22;9109;48.050;11.696;2022-10-31T11:49:41;17.50;94.90
17968;DHT22;9109;48.050;11.696;2022-10-31T11:52:43;17.60;94.00
17968;DHT22;9109;48.050;11.696;2022-10-31T11:55:46;17.60;94.50
17968;DHT22;9109;48.050;11.696;2022-10-31T11:58:56;17.60;95.10
17968;DHT22;9109;48.050;11.696;2022-10-31T12:02:00;17.50;95.50
17968;DHT22;9109;48.050;11.696;2022-10-31T12:05:06;17.60;95.30
17968;DHT22;9109;48.050;11.696;2022-10-31T12:08:10;17.80;96.00
17968;DHT22;9109;48.050;11.696;2022-10-31T12:11:27;17.80;96.00
17968;DHT22;9109;48.050;11.696;2022-10-31T12:14:41;17.90;95.20
17968;DHT22;9109;48.050;11.696;2022-10-31T12:17:51;17.90;95.30
17968;DHT22;9109;48.050;11.696;2022-10-31T12:21:16;17.90;95.60
17968;DHT22;9109;48.050;11.696;2022-10-31T12:28:40;17.90;95.80
17968;DHT22;9109;48.050;11.696;2022-10-31T12:31:53;17.90;96.00
17968;DHT22;9109;48.050;11.696;2022-10-31T12:35:13;17.90;94.90
17968;DHT22;9109;48.050;11.696;2022-10-31T12:38:42;17.90;95.50
17968;DHT22;9109;48.050;11.696;2022-10-31T12:41:52;17.90;96.00
17968;DHT22;9109;48.050;11.696;2022-10-31T12:45:25;17.80;96.50
17968;DHT22;9109;48.050;11.696;2022-10-31T12:48:52;17.90;95.90
17968;DHT22;9109;48.050;11.696;2022-10-31T12:52:07;17.90;96.30
17968;DHT22;9109;48.050;11.696;2022-10-31T12:55:27;18.00;95.00
17968;DHT22;9109;48.050;11.696;2022-10-31T12:58:34;18.00;95.40
17968;DHT22;9109;48.050;11.696;2022-10-31T13:01:41;18.10;94.40
17968;DHT22;9109;48.050;11.696;2022-10-31T13:04:49;18.10;95.20
17968;DHT22;9109;48.050;11.696;2022-10-31T13:07:57;18.10;95.40
17968;DHT22;9109;48.050;11.696;2022-10-31T13:11:06;18.10;95.70
17968;DHT22;9109;48.050;11.696;2022-10-31T13:14:14;18.10;96.60
17968;DHT22;9109;48.050;11.696;2022-10-31T13:17:23;18.10;97.50
17968;DHT22;9109;48.050;11.696;2022-10-31T13:20:29;18.10;96.50
17968;DHT22;9109;48.050;11.696;2022-10-31T13:23:34;18.20;97.00
17968;DHT22;9109;48.050;11.696;2022-10-31T13:26:40;18.20;96.70
17968;DHT22;9109;48.050;11.696;2022-10-31T13:29:54;18.20;96.70
17968;DHT22;9109;48.050;11.696;2022-10-31T13:36:21;18.20;96.50
17968;DHT22;9109;48.050;11.696;2022-10-31T13:39:38;18.20;96.90
17968;DHT22;9109;48.050;11.696;2022-10-31T13:42:52;18.20;97.20
17968;DHT22;9109;48.050;11.696;2022-10-31T13:45:56;18.20;97.80
17968;DHT22;9109;48.050;11.696;2022-10-31T13:48:58;18.20;97.80
17968;DHT22;9109;48.050;11.696;2022-10-31T13:52:07;18.20;98.10
17968;DHT22;9109;48.050;11.696;2022-10-31T13:55:35;18.20;99.30
17968;DHT22;9109;48.050;11.696;2022-10-31T13:58:37;18.10;99.40
17968;DHT22;9109;48.050;11.696;2022-10-31T14:01:46;18.20;99.60
17968;DHT22;9109;48.050;11.696;2022-10-31T14:04:51;18.10;99.90
17968;DHT22;9109;48.050;11.696;2022-10-31T14:07:58;18.10;99.90
17968;DHT22;9109;48.050;11.696;2022-10-31T14:11:02;18.10;99.90
17968;DHT22;9109;48.050;11.696;2022-10-31T14:14:11;18.00;99.90
17968;DHT22;9109;48.050;11.696;2022-10-31T14:17:19;18.00;99.90
17968;DHT22;9109;48.050;11.696;2022-10-31T14:20:31;18.00;99.90
17968;DHT22;9109;48.050;11.696;2022-10-31T14:23:39;18.00;99.90
17968;DHT22;9109;48.050;11.696;2022-10-31T14:26:55;18.10;99.90
17968;DHT22;9109;48.050;11.696;2022-10-31T14:30:10;18.10;99.90
17968;DHT22;9109;48.050;11.696;2022-10-31T14:33:18;18.00;99.90
17968;DHT22;9109;48.050;11.696;2022-10-31T14:36:26;18.00;99.90
17968;DHT22;9109;48.050;11.696;2022-10-31T14:39:32;18.00;99.90
17968;DHT22;9109;48.050;11.696;2022-10-31T14:42:54;18.00;99.90
17968;DHT22;9109;48.050;11.696;2022-10-31T14:46:01;18.00;99.90
17968;DHT22;9109;48.050;11.696;2022-10-31T14:49:23;18.00;99.90
17968;DHT22;9109;48.050;11.696;2022-10-31T14:52:29;18.00;99.90
17968;DHT22;9109;48.050;11.696;2022-10-31T14:55:31;18.00;99.90
17968;DHT22;9109;48.050;11.696;2022-10-31T14:58:37;18.00;99.90
17968;DHT22;9109;48.050;11.696;2022-10-31T15:01:50;18.00;99.90
17968;DHT22;9109;48.050;11.696;2022-10-31T15:04:55;17.90;99.90
17968;DHT22;9109;48.050;11.696;2022-10-31T15:07:59;18.00;99.90
17968;DHT22;9109;48.050;11.696;2022-10-31T15:11:03;17.90;99.90
17968;DHT22;9109;48.050;11.696;2022-10-31T15:14:23;17.90;99.90
17968;DHT22;9109;48.050;11.696;2022-10-31T15:17:26;17.80;99.90
17968;DHT22;9109;48.050;11.696;2022-10-31T15:20:33;17.80;99.90
17968;DHT22;9109;48.050;11.696;2022-10-31T15:23:37;17.80;99.90
17968;DHT22;9109;48.050;11.696;2022-10-31T15:26:40;17.60;99.90
17968;DHT22;9109;48.050;11.696;2022-10-31T15:29:50;17.60;99.90
17968;DHT22;9109;48.050;11.696;2022-10-31T15:32:53;17.50;99.90
17968;DHT22;9109;48.050;11.696;2022-10-31T15:35:59;17.40;99.90
17968;DHT22;9109;48.050;11.696;2022-10-31T15:39:01;17.40;99.90
17968;DHT22;9109;48.050;11.696;2022-10-31T15:42:03;17.30;99.90
17968;DHT22;9109;48.050;11.696;2022-10-31T15:45:17;17.30;99.90
17968;DHT22;9109;48.050;11.696;2022-10-31T15:48:22;17.20;99.90
17968;DHT22;9109;48.050;11.696;2022-10-31T15:51:27;17.20;99.90
17968;DHT22;9109;48.050;11.696;2022-10-31T15:54:29;17.10;99.90
17968;DHT22;9109;48.050;11.696;2022-10-31T15:57:31;17.00;99.90
17968;DHT22;9109;48.050;11.696;2022-10-31T16:00:36;16.90;99.90
17968;DHT22;9109;48.050;11.696;2022-10-31T16:03:40;16.80;99.90
17968;DHT22;9109;48.050;11.696;2022-10-31T16:06:41;16.80;99.90
17968;DHT22;9109;48.050;11.696;2022-10-31T16:09:52;16.70;99.90
17968;DHT22;9109;48.050;11.696;2022-10-31T16:12:55;16.60;99.90
17968;DHT22;9109;48.050;11.696;2022-10-31T16:16:00;16.50;99.90
17968;DHT22;9109;48.050;11.696;2022-10-31T16:19:04;16.50;99.90
17968;DHT22;9109;48.050;11.696;2022-10-31T16:22:09;16.50;99.90
17968;DHT22;9109;48.050;11.696;2022-10-31T16:25:14;16.50;99.90
17968;DHT22;9109;48.050;11.696;2022-10-31T16:28:18;16.40;99.90
17968;DHT22;9109;48.050;11.696;2022-10-31T16:31:35;16.30;99.90
17968;DHT22;9109;48.050;11.696;2022-10-31T16:34:37;16.30;99.90
17968;DHT22;9109;48.050;11.696;2022-10-31T16:37:40;16.20;99.90
17968;DHT22;9109;48.050;11.696;2022-10-31T16:40:42;16.10;99.90
17968;DHT22;9109;48.050;11.696;2022-10-31T16:43:44;16.00;99.90
17968;DHT22;9109;48.050;11.696;2022-10-31T16:46:50;15.90;99.90
17968;DHT22;9109;48.050;11.696;2022-10-31T16:50:12;15.80;99.90
17968;DHT22;9109;48.050;11.696;2022-10-31T16:53:16;15.80;99.90
17968;DHT22;9109;48.050;11.696;2022-10-31T16:56:23;15.80;99.90
17968;DHT22;9109;48.050;11.696;2022-10-31T16:59:26;15.70;99.90
17968;DHT22;9109;48.050;11.696;2022-10-31T17:02:30;15.70;99.90
17968;DHT22;9109;48.050;11.696;2022-10-31T17:05:31;15.70;99.90
17968;DHT22;9109;48.050;11.696;2022-10-31T17:08:34;15.70;99.90
17968;DHT22;9109;48.050;11.696;2022-10-31T17:11:36;15.50;99.90
17968;DHT22;9109;48.050;11.696;2022-10-31T17:14:40;15.40;99.90
17968;DHT22;9109;48.050;11.696;2022-10-31T17:17:44;15.30;99.90
17968;DHT22;9109;48.050;11.696;2022-10-31T17:20:46;15.30;99.90
17968;DHT22;9109;48.050;11.696;2022-10-31T17:23:49;15.30;99.90
17968;DHT22;9109;48.050;11.696;2022-10-31T17:26:50;15.20;99.90
17968;DHT22;9109;48.050;11.696;2022-10-31T17:29:52;15.30;99.90
17968;DHT22;9109;48.050;11.696;2022-10-31T17:32:56;15.20;99.90
17968;DHT22;9109;48.050;11.696;2022-10-31T17:35:57;15.30;99.90
17968;DHT22;9109;48.050;11.696;2022-10-31T17:38:59;15.30;99.90
17968;DHT22;9109;48.050;11.696;2022-10-31T17:42:02;15.10;99.90
17968;DHT22;9109;48.050;11.696;2022-10-31T17:45:05;15.00;99.90
17968;DHT22;9109;48.050;11.696;2022-10-31T17:48:10;14.90;99.90
17968;DHT22;9109;48.050;11.696;2022-10-31T17:51:12;14.90;99.90
17968;DHT22;9109;48.050;11.696;2022-10-31T17:54:14;14.90;99.90
17968;DHT22;9109;48.050;11.696;2022-10-31T17:57:18;14.90;99.90
17968;DHT22;9109;48.050;11.696;2022-10-31T18:00:20;14.80;99.90
17968;DHT22;9109;48.050;11.696;2022-10-31T18:03:25;14.70;99.90
17968;DHT22;9109;48.050;11.696;2022-10-31T18:06:27;14.80;99.90
17968;DHT22;9109;48.050;11.696;2022-10-31T18:09:29;14.80;99.90
17968;DHT22;9109;48.050;11.696;2022-10-31T18:12:33;14.80;99.90
17968;DHT22;9109;48.050;11.696;2022-10-31T18:15:38;14.70;99.90
17968;DHT22;9109;48.050;11.696;2022-10-31T18:18:42;14.60;99.90
17968;DHT22;9109;48.050;11.696;2022-10-31T18:21:44;14.60;99.90
17968;DHT22;9109;48.050;11.696;2022-10-31T18:24:46;14.50;99.90
17968;DHT22;9109;48.050;11.696;2022-10-31T18:27:48;14.40;99.90
17968;DHT22;9109;48.050;11.696;2022-10-31T18:30:50;14.40;99.90
17968;DHT22;9109;48.050;11.696;2022-10-31T18:33:54;14.40;99.90
17968;DHT22;9109;48.050;11.696;2022-10-31T18:36:56;14.30;99.90
17968;DHT22;9109;48.050;11.696;2022-10-31T18:39:58;14.30;99.90
17968;DHT22;9109;48.050;11.696;2022-10-31T18:43:00;14.30;99.90
17968;DHT22;9109;48.050;11.696;2022-10-31T18:46:07;14.30;99.90
17968;DHT22;9109;48.050;11.696;2022-10-31T18:49:11;14.30;99.90
17968;DHT22;9109;48.050;11.696;2022-10-31T18:52:13;14.20;99.90
17968;DHT22;9109;48.050;11.696;2022-10-31T18:55:15;14.20;99.90
17968;DHT22;9109;48.050;11.696;2022-10-31T18:58:17;14.10;99.90
17968;DHT22;9109;48.050;11.696;2022-10-31T19:01:20;14.00;99.90
17968;DHT22;9109;48.050;11.696;2022-10-31T19:04:23;14.00;99.90
17968;DHT22;9109;48.050;11.696;2022-10-31T19:07:26;14.00;99.90
17968;DHT22;9109;48.050;11.696;2022-10-31T19:10:28;14.10;99.90
17968;DHT22;9109;48.050;11.696;2022-10-31T19:13:31;13.90;99.90
17968;DHT22;9109;48.050;11.696;2022-10-31T19:16:33;13.90;99.90
17968;DHT22;9109;48.050;11.696;2022-10-31T19:19:36;13.90;99.90
17968;DHT22;9109;48.050;11.696;2022-10-31T19:22:39;14.00;99.90
17968;DHT22;9109;48.050;11.696;2022-10-31T19:25:40;13.80;99.90
17968;DHT22;9109;48.050;11.696;2022-10-31T19:28:42;13.80;99.90
17968;DHT22;9109;48.050;11.696;2022-10-31T19:31:44;13.80;99.90
17968;DHT22;9109;48.050;11.696;2022-10-31T19:34:49;13.70;99.90
17968;DHT22;9109;48.050;11.696;2022-10-31T19:37:50;13.60;99.90
17968;DHT22;9109;48.050;11.696;2022-10-31T19:40:55;13.50;99.90
17968;DHT22;9109;48.050;11.696;2022-10-31T19:43:58;13.50;99.90
17968;DHT22;9109;48.050;11.696;2022-10-31T19:47:01;13.60;99.90
17968;DHT22;9109;48.050;11.696;2022-10-31T19:50:05;13.60;99.90
17968;DHT22;9109;48.050;11.696;2022-10-31T19:53:07;13.60;99.90
17968;DHT22;9109;48.050;11.696;2022-10-31T19:56:15;13.40;99.90
17968;DHT22;9109;48.050;11.696;2022-10-31T19:59:17;13.30;99.90
17968;DHT22;9109;48.050;11.696;2022-10-31T20:02:19;13.30;99.90
17968;DHT22;9109;48.050;11.696;2022-10-31T20:05:23;13.40;99.90
17968;DHT22;9109;48.050;11.696;2022-10-31T20:08:24;13.30;99.90
17968;DHT22;9109;48.050;11.696;2022-10-31T20:11:28;13.30;99.90
17968;DHT22;9109;48.050;11.696;2022-10-31T20:14:30;13.20;99.90
17968;DHT22;9109;48.050;11.696;2022-10-31T20:17:32;13.10;99.90
17968;DHT22;9109;48.050;11.696;2022-10-31T20:20:35;13.20;99.90
17968;DHT22;9109;48.050;11.696;2022-10-31T20:23:38;13.20;99.90
17968;DHT22;9109;48.050;11.696;2022-10-31T20:26:40;13.20;99.90
17968;DHT22;9109;48.050;11.696;2022-10-31T20:29:42;13.30;99.90
17968;DHT22;9109;48.050;11.696;2022-10-31T20:33:12;13.20;99.90
17968;DHT22;9109;48.050;11.696;2022-10-31T20:36:20;13.20;99.90
17968;DHT22;9109;48.050;11.696;2022-10-31T20:39:33;13.10;99.90
17968;DHT22;9109;48.050;11.696;2022-10-31T20:42:41;13.10;99.90
17968;DHT22;9109;48.050;11.696;2022-10-31T20:45:46;13.10;99.90
17968;DHT22;9109;48.050;11.696;2022-10-31T20:48:52;13.10;99.90
17968;DHT22;9109;48.050;11.696;2022-10-31T20:52:09;13.00;99.90
17968;DHT22;9109;48.050;11.696;2022-10-31T20:55:21;13.00;99.90
17968;DHT22;9109;48.050;11.696;2022-10-31T20:58:32;13.00;99.90
17968;DHT22;9109;48.050;11.696;2022-10-31T21:01:39;13.00;99.90
17968;DHT22;9109;48.050;11.696;2022-10-31T21:04:41;12.90;99.90
17968;DHT22;9109;48.050;11.696;2022-10-31T21:08:05;12.80;99.90
17968;DHT22;9109;48.050;11.696;2022-10-31T21:11:19;12.70;99.90
17968;DHT22;9109;48.050;11.696;2022-10-31T21:14:35;12.60;99.90
17968;DHT22;9109;48.050;11.696;2022-10-31T21:17:43;12.70;99.90
17968;DHT22;9109;48.050;11.696;2022-10-31T21:20:50;12.60;99.90
17968;DHT22;9109;48.050;11.696;2022-10-31T21:24:06;12.60;99.90
17968;DHT22;9109;48.050;11.696;2022-10-31T21:27:11;12.50;99.90
17968;DHT22;9109;48.050;11.696;2022-10-31T21:30:18;12.60;99.90
17968;DHT22;9109;48.050;11.696;2022-10-31T21:33:27;12.60;99.90
17968;DHT22;9109;48.050;11.696;2022-10-31T21:36:43;12.60;99.90
17968;DHT22;9109;48.050;11.696;2022-10-31T21:39:59;12.40;99.90
17968;DHT22;9109;48.050;11.696;2022-10-31T21:43:12;12.20;99.90
17968;DHT22;9109;48.050;11.696;2022-10-31T21:46:33;12.30;99.90
17968;DHT22;9109;48.050;11.696;2022-10-31T21:49:50;11.90;99.90
17968;DHT22;9109;48.050;11.696;2022-10-31T21:53:06;11.80;99.90
17968;DHT22;9109;48.050;11.696;2022-10-31T21:56:40;11.70;99.90
17968;DHT22;9109;48.050;11.696;2022-10-31T21:59:56;11.70;99.90
17968;DHT22;9109;48.050;11.696;2022-10-31T22:03:19;11.70;99.90
17968;DHT22;9109;48.050;11.696;2022-10-31T22:06:29;11.70;99.90
17968;DHT22;9109;48.050;11.696;2022-10-31T22:09:38;11.70;99.90
17968;DHT22;9109;48.050;11.696;2022-10-31T22:13:08;11.70;99.90
17968;DHT22;9109;48.050;11.696;2022-10-31T22:16:37;11.70;99.90
17968;DHT22;9109;48.050;11.696;2022-10-31T22:20:01;11.60;99.90
17968;DHT22;9109;48.050;11.696;2022-10-31T22:23:15;11.60;99.90
17968;DHT22;9109;48.050;11.696;2022-10-31T22:26:30;11.60;99.90
17968;DHT22;9109;48.050;11.696;2022-10-31T22:29:43;11.40;99.90
17968;DHT22;9109;48.050;11.696;2022-10-31T22:33:12;11.40;99.90
17968;DHT22;9109;48.050;11.696;2022-10-31T22:36:23;11.20;99.90
17968;DHT22;9109;48.050;11.696;2022-10-31T22:39:25;11.10;99.90
17968;DHT22;9109;48.050;11.696;2022-10-31T22:42:37;11.20;99.90
17968;DHT22;9109;48.050;11.696;2022-10-31T22:46:00;11.30;99.90
17968;DHT22;9109;48.050;11.696;2022-10-31T22:49:10;11.50;99.90
17968;DHT22;9109;48.050;11.696;2022-10-31T22:52:23;11.60;99.90
17968;DHT22;9109;48.050;11.696;2022-10-31T22:55:35;11.80;99.90
17968;DHT22;9109;48.050;11.696;2022-10-31T22:58:47;11.80;99.90
17968;DHT22;9109;48.050;11.696;2022-10-31T23:02:02;11.90;99.90
17968;DHT22;9109;48.050;11.696;2022-10-31T23:05:12;11.80;99.90
17968;DHT22;9109;48.050;11.696;2022-10-31T23:08:27;11.80;99.90
17968;DHT22;9109;48.050;11.696;2022-10-31T23:11:39;11.80;99.90
17968;DHT22;9109;48.050;11.696;2022-10-31T23:15:01;11.80;99.90
17968;DHT22;9109;48.050;11.696;2022-10-31T23:18:22;11.70;99.90
17968;DHT22;9109;48.050;11.696;2022-10-31T23:21:29;11.80;99.90
17968;DHT22;9109;48.050;11.696;2022-10-31T23:24:53;11.80;99.90
17968;DHT22;9109;48.050;11.696;2022-10-31T23:27:58;11.70;99.90
17968;DHT22;9109;48.050;11.696;2022-10-31T23:31:00;11.70;99.90
17968;DHT22;9109;48.050;11.696;2022-10-31T23:34:15;11.50;99.90
17968;DHT22;9109;48.050;11.696;2022-10-31T23:37:22;11.50;99.90
17968;DHT22;9109;48.050;11.696;2022-10-31T23:40:28;11.60;99.90
17968;DHT22;9109;48.050;11.696;2022-10-31T23:43:38;11.60;99.90
17968;DHT22;9109;48.050;11.696;2022-10-31T23:46:54;11.60;99.90
17968;DHT22;9109;48.050;11.696;2022-10-31T23:50:14;11.60;99.90
17968;DHT22;9109;48.050;11.696;2022-10-31T23:53:24;11.60;99.90
17968;DHT22;9109;48.050;11.696;2022-10-31T23:56:34;11.60;99.90
17968;DHT22;9109;48.050;11.696;2022-10-31T23:59:47;11.60;99.90
